createdAt,value
2022-10-22T00:00:59.616Z,84.82
2022-10-22T00:03:36.856Z,84.25
2022-10-22T00:06:05.497Z,84.27
2022-10-22T00:08:33.570Z,84.42
2022-10-22T00:11:09.717Z,83.85
2022-10-22T00:13:37.860Z,83.76
2022-10-22T00:16:06.345Z,84.14
2022-10-22T00:18:35.712Z,84.06
2022-10-22T00:21:04.050Z,83.86
2022-10-22T00:23:31.974Z,83.79
2022-10-22T00:26:00.039Z,83.70
2022-10-22T00:28:27.938Z,83.93
2022-10-22T00:30:57.734Z,83.71
2022-10-22T00:33:27.151Z,83.60
2022-10-22T00:35:55.224Z,83.78
2022-10-22T00:38:23.320Z,83.54
2022-10-22T00:40:51.766Z,83.48
2022-10-22T00:43:20.593Z,83.50
2022-10-22T00:45:48.423Z,82.91
2022-10-22T00:48:23.602Z,83.40
2022-10-22T00:50:59.955Z,83.45
2022-10-22T00:53:44.674Z,83.38
2022-10-22T00:56:12.853Z,83.25
2022-10-22T00:58:52.585Z,83.44
2022-10-22T01:01:25.088Z,83.56
2022-10-22T01:03:53.879Z,83.55
2022-10-22T01:06:26.223Z,83.51
2022-10-22T01:09:09.545Z,83.44
2022-10-22T01:11:49.966Z,83.58
2022-10-22T01:14:21.330Z,83.57
2022-10-22T01:17:08.364Z,83.59
2022-10-22T01:19:48.884Z,83.89
2022-10-22T01:22:23.940Z,84.20
2022-10-22T01:25:10.825Z,84.31
2022-10-22T01:28:00.044Z,84.30
2022-10-22T01:30:28.414Z,83.98
2022-10-22T01:33:02.279Z,84.03
2022-10-22T01:35:36.186Z,83.47
2022-10-22T01:38:09.076Z,83.85
2022-10-22T01:40:38.358Z,83.20
2022-10-22T01:43:08.585Z,83.43
2022-10-22T01:45:41.438Z,83.82
2022-10-22T01:48:47.084Z,83.58
2022-10-22T01:51:15.252Z,83.79
2022-10-22T01:54:32.543Z,83.87
2022-10-22T01:57:42.928Z,83.10
2022-10-22T02:00:14.785Z,83.70
2022-10-22T02:02:55.341Z,83.54
2022-10-22T02:05:28.666Z,84.03
2022-10-22T02:08:02.472Z,84.07
2022-10-22T02:10:30.942Z,83.40
2022-10-22T02:13:01.490Z,83.36
2022-10-22T02:15:33.731Z,83.63
2022-10-22T02:18:03.356Z,83.72
2022-10-22T02:20:37.567Z,83.87
2022-10-22T02:23:05.829Z,83.41
2022-10-22T02:25:41.310Z,83.20
2022-10-22T02:28:32.586Z,83.56
2022-10-22T02:31:13.737Z,83.32
2022-10-22T02:33:48.884Z,83.45
2022-10-22T02:36:18.411Z,83.35
2022-10-22T02:38:49.254Z,83.34
2022-10-22T02:41:18.943Z,83.43
2022-10-22T02:43:53.847Z,83.02
2022-10-22T02:46:22.252Z,82.93
2022-10-22T02:48:50.309Z,83.12
2022-10-22T02:51:18.263Z,83.32
2022-10-22T02:53:46.249Z,83.12
2022-10-22T02:56:14.702Z,83.10
2022-10-22T02:58:42.679Z,82.86
2022-10-22T03:01:13.765Z,83.16
2022-10-22T03:03:44.138Z,83.08
2022-10-22T03:06:12.746Z,83.13
2022-10-22T03:08:41.255Z,83.07
2022-10-22T03:11:09.242Z,83.15
2022-10-22T03:13:37.520Z,83.23
2022-10-22T03:16:06.431Z,82.91
2022-10-22T03:18:34.773Z,82.71
2022-10-22T03:21:14.694Z,82.62
2022-10-22T03:23:43.735Z,82.80
2022-10-22T03:26:14.199Z,82.84
2022-10-22T03:28:42.899Z,82.76
2022-10-22T03:31:11.018Z,82.36
2022-10-22T03:33:39.011Z,82.55
2022-10-22T03:36:08.490Z,82.70
2022-10-22T03:38:41.159Z,82.33
2022-10-22T03:41:10.347Z,82.44
2022-10-22T03:43:39.231Z,82.75
2022-10-22T03:46:07.848Z,82.70
2022-10-22T03:48:35.854Z,82.51
2022-10-22T03:51:04.826Z,82.42
2022-10-22T03:53:33.068Z,82.09
2022-10-22T03:56:00.933Z,82.39
2022-10-22T03:58:28.894Z,81.89
2022-10-22T04:00:56.864Z,81.70
2022-10-22T04:03:25.154Z,81.85
2022-10-22T04:05:53.312Z,81.86
2022-10-22T04:08:21.287Z,82.03
2022-10-22T04:10:52.406Z,81.67
2022-10-22T04:13:20.389Z,81.94
2022-10-22T04:15:48.281Z,82.03
2022-10-22T04:18:16.514Z,82.04
2022-10-22T04:20:44.670Z,81.96
2022-10-22T04:23:13.597Z,81.58
2022-10-22T04:25:41.455Z,81.73
2022-10-22T04:28:10.811Z,81.94
2022-10-22T04:30:38.725Z,81.73
2022-10-22T04:33:06.721Z,81.37
2022-10-22T04:35:38.823Z,81.75
2022-10-22T04:38:06.793Z,81.73
2022-10-22T04:40:34.769Z,80.99
2022-10-22T04:43:02.730Z,80.77
2022-10-22T04:45:31.071Z,81.08
2022-10-22T04:47:58.916Z,81.30
2022-10-22T04:50:27.003Z,81.47
2022-10-22T04:52:55.034Z,81.50
2022-10-22T04:55:23.025Z,81.47
2022-10-22T04:57:51.014Z,81.31
2022-10-22T05:00:19.115Z,81.11
2022-10-22T05:02:51.139Z,81.06
2022-10-22T05:05:19.554Z,80.36
2022-10-22T05:07:47.530Z,80.85
2022-10-22T05:10:15.507Z,81.02
2022-10-22T05:12:43.461Z,80.83
2022-10-22T05:15:11.544Z,80.80
2022-10-22T05:17:39.762Z,80.44
2022-10-22T05:20:09.331Z,80.85
2022-10-22T05:22:37.402Z,80.22
2022-10-22T05:25:05.767Z,80.45
2022-10-22T05:27:33.797Z,80.06
2022-10-22T05:30:01.817Z,80.40
2022-10-22T05:32:29.655Z,80.47
2022-10-22T05:34:57.852Z,80.69
2022-10-22T05:37:25.828Z,80.77
2022-10-22T05:40:01.809Z,79.97
2022-10-22T05:42:40.986Z,79.90
2022-10-22T05:45:09.586Z,80.14
2022-10-22T05:47:37.465Z,80.46
2022-10-22T05:50:05.981Z,80.38
2022-10-22T05:52:33.944Z,79.98
2022-10-22T05:55:02.132Z,79.34
2022-10-22T05:57:30.099Z,79.63
2022-10-22T05:59:58.079Z,79.69
2022-10-22T06:02:26.037Z,80.07
2022-10-22T06:04:54.013Z,80.13
2022-10-22T06:07:23.216Z,79.72
2022-10-22T06:09:51.287Z,79.93
2022-10-22T06:12:19.918Z,80.09
2022-10-22T06:14:47.848Z,79.79
2022-10-22T06:17:16.054Z,80.02
2022-10-22T06:19:43.994Z,80.19
2022-10-22T06:22:11.907Z,79.51
2022-10-22T06:24:41.639Z,79.87
2022-10-22T06:27:13.013Z,80.15
2022-10-22T06:29:41.188Z,80.08
2022-10-22T06:32:09.140Z,79.98
2022-10-22T06:34:37.263Z,80.04
2022-10-22T06:37:05.208Z,80.05
2022-10-22T06:39:33.169Z,79.65
2022-10-22T06:42:01.503Z,79.36
2022-10-22T06:44:29.479Z,79.76
2022-10-22T06:46:57.466Z,80.06
2022-10-22T06:49:25.471Z,79.90
2022-10-22T06:51:54.520Z,79.50
2022-10-22T06:54:23.535Z,78.49
2022-10-22T06:56:51.711Z,79.48
2022-10-22T06:59:19.642Z,79.11
2022-10-22T07:01:47.687Z,79.10
2022-10-22T07:04:15.739Z,78.45
2022-10-22T07:06:43.721Z,78.60
2022-10-22T07:09:11.883Z,77.66
2022-10-22T07:11:45.729Z,78.79
2022-10-22T07:14:14.944Z,79.06
2022-10-22T07:16:42.899Z,78.45
2022-10-22T07:19:10.964Z,78.62
2022-10-22T07:21:39.044Z,78.73
2022-10-22T07:24:07.258Z,78.32
2022-10-22T07:26:35.444Z,78.75
2022-10-22T07:29:03.856Z,78.91
2022-10-22T07:31:31.986Z,78.84
2022-10-22T07:34:00.131Z,78.36
2022-10-22T07:36:28.111Z,78.72
2022-10-22T07:38:58.214Z,79.09
2022-10-22T07:41:28.150Z,79.41
2022-10-22T07:43:57.493Z,79.50
2022-10-22T07:46:27.004Z,79.16
2022-10-22T07:48:55.229Z,78.50
2022-10-22T07:51:23.196Z,78.96
2022-10-22T07:53:51.146Z,78.52
2022-10-22T07:56:19.549Z,78.04
2022-10-22T07:58:47.637Z,78.08
2022-10-22T08:01:15.632Z,77.74
2022-10-22T08:03:44.571Z,77.48
2022-10-22T08:06:15.975Z,77.23
2022-10-22T08:08:44.777Z,77.68
2022-10-22T08:11:13.126Z,76.96
2022-10-22T08:13:45.044Z,77.01
2022-10-22T08:16:14.831Z,76.18
2022-10-22T08:18:43.006Z,76.07
2022-10-22T08:21:12.594Z,76.16
2022-10-22T08:23:40.665Z,76.25
2022-10-22T08:26:09.279Z,76.52
2022-10-22T08:28:37.865Z,75.59
2022-10-22T08:31:07.739Z,75.27
2022-10-22T08:33:36.026Z,75.46
2022-10-22T08:36:05.498Z,75.05
2022-10-22T08:38:33.612Z,75.01
2022-10-22T08:41:12.175Z,75.14
2022-10-22T08:44:17.042Z,74.75
2022-10-22T08:47:24.366Z,74.53
2022-10-22T08:49:54.718Z,74.34
2022-10-22T08:52:22.670Z,74.12
2022-10-22T08:54:58.976Z,73.91
2022-10-22T08:58:11.834Z,73.74
2022-10-22T09:00:52.572Z,73.79
2022-10-22T09:03:56.943Z,73.58
2022-10-22T09:06:28.465Z,73.25
2022-10-22T09:08:58.713Z,72.91
2022-10-22T09:11:28.815Z,72.81
2022-10-22T09:13:57.604Z,72.83
2022-10-22T09:16:53.044Z,72.83
2022-10-22T09:19:36.079Z,72.74
2022-10-22T09:22:18.864Z,72.58
2022-10-22T09:24:49.397Z,72.45
2022-10-22T09:27:26.448Z,72.46
2022-10-22T09:29:54.558Z,72.42
2022-10-22T09:32:23.434Z,72.24
2022-10-22T09:34:57.203Z,72.20
2022-10-22T09:37:28.462Z,72.01
2022-10-22T09:39:57.810Z,71.95
2022-10-22T09:42:25.884Z,71.87
2022-10-22T09:44:57.978Z,71.90
2022-10-22T09:48:00.927Z,71.86
2022-10-22T09:50:43.099Z,71.82
2022-10-22T09:53:28.932Z,71.73
2022-10-22T09:56:00.900Z,71.66
2022-10-22T09:58:28.818Z,71.60
2022-10-22T10:00:59.266Z,71.62
2022-10-22T10:03:32.205Z,71.67
2022-10-22T10:06:04.978Z,71.57
2022-10-22T10:08:34.798Z,71.56
2022-10-22T10:11:11.863Z,71.61
2022-10-22T10:13:39.795Z,71.64
2022-10-22T10:16:40.732Z,71.89
2022-10-22T10:19:15.256Z,72.27
2022-10-22T10:22:29.753Z,72.54
2022-10-22T10:25:39.619Z,72.74
2022-10-22T10:28:39.826Z,72.84
2022-10-22T10:31:19.886Z,72.83
2022-10-22T10:33:53.971Z,72.94
2022-10-22T10:36:55.120Z,72.96
2022-10-22T10:39:48.879Z,72.90
2022-10-22T10:42:41.955Z,72.86
2022-10-22T10:45:50.333Z,72.85
2022-10-22T10:48:38.864Z,72.83
2022-10-22T10:51:30.271Z,72.83
2022-10-22T10:53:58.454Z,72.90
2022-10-22T10:56:35.609Z,72.95
2022-10-22T10:59:18.138Z,73.02
2022-10-22T11:01:51.878Z,73.07
2022-10-22T11:04:47.755Z,73.17
2022-10-22T11:07:34.096Z,73.28
2022-10-22T11:10:14.178Z,73.47
2022-10-22T11:12:45.917Z,73.53
2022-10-22T11:15:35.750Z,73.60
2022-10-22T11:18:20.311Z,73.73
2022-10-22T11:21:10.354Z,73.87
2022-10-22T11:23:48.505Z,73.87
2022-10-22T11:26:34.444Z,73.94
2022-10-22T11:29:06.106Z,73.94
2022-10-22T11:31:34.587Z,73.94
2022-10-22T11:34:31.992Z,73.83
2022-10-22T11:37:00.108Z,73.78
2022-10-22T11:39:46.507Z,73.93
2022-10-22T11:42:21.138Z,73.98
2022-10-22T11:44:59.975Z,73.94
2022-10-22T11:47:33.852Z,73.88
2022-10-22T11:50:19.252Z,73.84
2022-10-22T11:53:17.295Z,73.95
2022-10-22T11:55:47.716Z,73.87
2022-10-22T11:58:37.389Z,73.88
2022-10-22T12:01:08.434Z,73.90
2022-10-22T12:03:59.222Z,74.01
2022-10-22T12:06:28.224Z,74.05
2022-10-22T12:09:03.065Z,74.16
2022-10-22T12:11:39.811Z,74.19
2022-10-22T12:14:26.323Z,74.20
2022-10-22T12:17:02.889Z,74.06
2022-10-22T12:20:11.399Z,74.07
2022-10-22T12:22:40.386Z,73.99
2022-10-22T12:25:34.789Z,73.95
2022-10-22T12:28:04.584Z,73.80
2022-10-22T12:30:36.848Z,73.40
2022-10-22T12:33:07.973Z,73.37
2022-10-22T12:35:44.372Z,73.20
2022-10-22T12:38:23.692Z,73.10
2022-10-22T12:40:56.826Z,72.89
2022-10-22T12:43:28.130Z,72.83
2022-10-22T12:45:59.017Z,72.82
2022-10-22T12:48:32.642Z,72.76
2022-10-22T12:51:04.335Z,72.74
2022-10-22T12:53:35.786Z,72.70
2022-10-22T12:56:12.493Z,72.76
2022-10-22T12:58:52.096Z,72.89
2022-10-22T13:01:20.274Z,72.89
2022-10-22T13:03:51.396Z,73.19
2022-10-22T13:06:19.297Z,73.51
2022-10-22T13:08:59.750Z,73.73
2022-10-22T13:11:42.840Z,73.99
2022-10-22T13:14:21.325Z,74.27
2022-10-22T13:17:12.799Z,74.49
2022-10-22T13:19:52.948Z,74.60
2022-10-22T13:22:25.420Z,74.73
2022-10-22T13:24:53.957Z,74.96
2022-10-22T13:27:23.877Z,75.05
2022-10-22T13:29:51.869Z,75.10
2022-10-22T13:32:40.440Z,75.23
2022-10-22T13:35:16.192Z,75.33
2022-10-22T13:37:44.358Z,75.49
2022-10-22T13:40:13.570Z,75.63
2022-10-22T13:42:41.739Z,75.80
2022-10-22T13:45:10.660Z,76.05
2022-10-22T13:47:38.723Z,76.21
2022-10-22T13:50:18.194Z,76.60
2022-10-22T13:52:50.329Z,76.81
2022-10-22T13:55:23.826Z,76.89
2022-10-22T13:57:55.588Z,76.98
2022-10-22T14:00:26.496Z,77.09
2022-10-22T14:02:58.451Z,77.11
2022-10-22T14:05:26.770Z,77.06
2022-10-22T14:07:54.750Z,77.26
2022-10-22T14:10:24.913Z,77.38
2022-10-22T14:12:53.690Z,77.44
2022-10-22T14:15:24.090Z,77.60
2022-10-22T14:17:56.881Z,77.69
2022-10-22T14:20:31.193Z,77.75
2022-10-22T14:23:27.305Z,77.93
2022-10-22T14:25:56.668Z,78.00
2022-10-22T14:28:25.014Z,78.05
2022-10-22T14:30:55.844Z,78.06
2022-10-22T14:33:30.554Z,78.06
2022-10-22T14:36:00.808Z,77.96
2022-10-22T14:38:29.687Z,77.81
2022-10-22T14:40:59.642Z,77.82
2022-10-22T14:43:30.235Z,77.69
2022-10-22T14:45:58.613Z,77.53
2022-10-22T14:48:26.691Z,77.46
2022-10-22T14:50:55.178Z,77.47
2022-10-22T14:53:23.251Z,77.47
2022-10-22T14:55:51.225Z,77.58
2022-10-22T14:58:19.303Z,77.68
2022-10-22T15:00:47.305Z,77.75
2022-10-22T15:03:15.351Z,77.83
2022-10-22T15:05:45.027Z,77.86
2022-10-22T15:08:14.784Z,77.84
2022-10-22T15:10:43.059Z,77.85
2022-10-22T15:13:11.404Z,77.81
2022-10-22T15:15:42.486Z,77.88
2022-10-22T15:18:10.404Z,77.94
2022-10-22T15:20:38.451Z,78.08
2022-10-22T15:23:06.315Z,78.15
2022-10-22T15:25:34.384Z,78.24
2022-10-22T15:28:09.442Z,78.29
2022-10-22T15:30:38.031Z,78.39
2022-10-22T15:33:06.590Z,78.50
2022-10-22T15:35:34.671Z,78.58
2022-10-22T15:38:02.945Z,78.60
2022-10-22T15:40:31.330Z,78.54
2022-10-22T15:42:59.406Z,78.63
2022-10-22T15:45:27.275Z,78.78
2022-10-22T15:47:55.353Z,78.88
2022-10-22T15:50:23.327Z,78.79
2022-10-22T15:52:51.230Z,78.81
2022-10-22T15:55:19.274Z,79.14
2022-10-22T15:57:47.559Z,79.91
2022-10-22T16:00:15.944Z,79.71
2022-10-22T16:02:44.524Z,80.13
2022-10-22T16:05:12.606Z,80.10
2022-10-22T16:07:40.823Z,79.93
2022-10-22T16:10:09.684Z,80.03
2022-10-22T16:12:37.750Z,79.76
2022-10-22T16:15:06.377Z,80.35
2022-10-22T16:17:34.319Z,80.31
2022-10-22T16:20:02.490Z,79.81
2022-10-22T16:22:30.520Z,80.15
2022-10-22T16:24:58.590Z,79.89
2022-10-22T16:27:26.517Z,79.72
2022-10-22T16:29:54.486Z,80.16
2022-10-22T16:32:22.871Z,80.02
2022-10-22T16:34:50.688Z,79.82
2022-10-22T16:37:18.721Z,80.37
2022-10-22T16:39:46.794Z,79.90
2022-10-22T16:42:14.765Z,79.65
2022-10-22T16:44:43.050Z,79.79
2022-10-22T16:47:11.122Z,80.06
2022-10-22T16:49:39.197Z,81.37
2022-10-22T16:52:07.581Z,81.31
2022-10-22T16:54:35.558Z,81.12
2022-10-22T16:57:03.527Z,81.38
2022-10-22T16:59:31.501Z,81.81
2022-10-22T17:01:59.617Z,81.58
2022-10-22T17:04:27.652Z,81.73
2022-10-22T17:06:55.956Z,80.95
2022-10-22T17:09:24.322Z,82.02
2022-10-22T17:11:52.699Z,82.19
2022-10-22T17:14:21.490Z,82.31
2022-10-22T17:16:49.568Z,82.46
2022-10-22T17:19:17.849Z,82.54
2022-10-22T17:21:46.518Z,82.84
2022-10-22T17:24:15.233Z,82.91
2022-10-22T17:26:43.713Z,83.07
2022-10-22T17:29:13.328Z,82.85
2022-10-22T17:31:41.813Z,83.36
2022-10-22T17:34:15.311Z,83.59
2022-10-22T17:36:44.358Z,82.68
2022-10-22T17:39:17.437Z,82.62
2022-10-22T17:41:45.533Z,82.90
2022-10-22T17:44:13.754Z,83.06
2022-10-22T17:46:41.629Z,83.17
2022-10-22T17:49:19.248Z,83.57
2022-10-22T17:51:47.910Z,83.31
2022-10-22T17:54:16.089Z,83.21
2022-10-22T17:56:44.161Z,82.99
2022-10-22T17:59:14.837Z,83.31
2022-10-22T18:01:43.122Z,83.33
2022-10-22T18:04:15.376Z,83.65
2022-10-22T18:06:43.363Z,83.54
2022-10-22T18:09:14.434Z,83.42
2022-10-22T18:11:45.481Z,84.00
2022-10-22T18:14:13.489Z,84.01
2022-10-22T18:16:41.461Z,84.07
2022-10-22T18:19:10.150Z,84.00
2022-10-22T18:21:38.132Z,84.22
2022-10-22T18:24:06.609Z,84.45
2022-10-22T18:26:34.688Z,84.26
2022-10-22T18:29:02.862Z,84.38
2022-10-22T18:31:30.836Z,84.53
2022-10-22T18:33:59.326Z,84.52
2022-10-22T18:36:28.215Z,84.53
2022-10-22T18:38:58.803Z,84.74
2022-10-22T18:41:28.563Z,84.89
2022-10-22T18:43:59.301Z,85.13
2022-10-22T18:46:28.921Z,84.82
2022-10-22T18:48:58.535Z,84.61
2022-10-22T18:51:29.056Z,84.84
2022-10-22T18:54:05.310Z,85.16
2022-10-22T18:56:40.356Z,85.44
2022-10-22T18:59:23.270Z,85.28
2022-10-22T19:01:56.561Z,85.27
2022-10-22T19:04:24.426Z,85.31
2022-10-22T19:06:52.509Z,85.43
2022-10-22T19:09:24.271Z,85.47
2022-10-22T19:11:52.347Z,85.54
2022-10-22T19:14:20.318Z,85.56
2022-10-22T19:16:49.625Z,85.67
2022-10-22T19:19:19.722Z,85.71
2022-10-22T19:21:48.909Z,85.71
2022-10-22T19:24:19.090Z,85.68
2022-10-22T19:26:48.581Z,85.71
2022-10-22T19:29:18.986Z,85.83
2022-10-22T19:31:47.700Z,85.91
2022-10-22T19:34:16.079Z,85.92
2022-10-22T19:36:43.952Z,85.97
2022-10-22T19:39:15.656Z,86.02
2022-10-22T19:41:43.888Z,86.17
2022-10-22T19:44:11.877Z,86.03
2022-10-22T19:46:39.836Z,86.14
2022-10-22T19:49:07.813Z,86.10
2022-10-22T19:51:35.774Z,86.12
2022-10-22T19:54:06.323Z,86.18
2022-10-22T19:56:36.212Z,85.99
2022-10-22T19:59:05.746Z,86.01
2022-10-22T20:01:33.768Z,86.05
2022-10-22T20:04:01.909Z,86.09
2022-10-22T20:06:30.994Z,86.22
2022-10-22T20:08:58.912Z,86.09
2022-10-22T20:11:30.038Z,86.11
2022-10-22T20:13:58.908Z,86.33
2022-10-22T20:16:29.342Z,86.12
2022-10-22T20:19:02.631Z,86.22
2022-10-22T20:21:31.257Z,86.21
2022-10-22T20:24:00.070Z,86.27
2022-10-22T20:26:28.806Z,86.18
2022-10-22T20:28:58.010Z,86.20
2022-10-22T20:31:28.934Z,86.25
2022-10-22T20:33:58.465Z,86.29
2022-10-22T20:36:28.303Z,86.35
2022-10-22T20:39:02.488Z,86.32
2022-10-22T20:41:30.473Z,86.31
2022-10-22T20:43:58.419Z,86.27
2022-10-22T20:46:35.319Z,86.43
2022-10-22T20:49:09.635Z,86.35
2022-10-22T20:51:38.217Z,86.32
2022-10-22T20:54:07.691Z,86.15
2022-10-22T20:56:38.193Z,86.12
2022-10-22T20:59:07.438Z,85.80
2022-10-22T21:02:02.245Z,86.01
2022-10-22T21:04:30.763Z,86.07
2022-10-22T21:06:58.705Z,86.04
2022-10-22T21:09:27.122Z,85.93
2022-10-22T21:11:55.203Z,86.02
2022-10-22T21:14:23.341Z,86.18
2022-10-22T21:16:51.786Z,86.11
2022-10-22T21:19:21.027Z,86.20
2022-10-22T21:21:49.732Z,86.17
2022-10-22T21:24:18.203Z,85.98
2022-10-22T21:26:46.095Z,86.12
2022-10-22T21:29:14.762Z,86.15
2022-10-22T21:31:43.945Z,86.02
2022-10-22T21:34:13.019Z,86.12
2022-10-22T21:36:41.519Z,86.21
2022-10-22T21:39:09.656Z,86.03
2022-10-22T21:41:38.013Z,85.81
2022-10-22T21:44:06.594Z,85.68
2022-10-22T21:46:35.276Z,85.95
2022-10-22T21:49:04.351Z,85.87
2022-10-22T21:51:34.610Z,85.65
2022-10-22T21:54:02.707Z,85.52
2022-10-22T21:56:35.270Z,85.15
2022-10-22T21:59:05.572Z,85.52
2022-10-22T22:01:33.918Z,85.52
2022-10-22T22:04:02.771Z,85.51
2022-10-22T22:06:33.445Z,85.56
2022-10-22T22:09:04.139Z,85.65
2022-10-22T22:11:32.925Z,85.38
2022-10-22T22:14:00.802Z,85.43
2022-10-22T22:16:32.795Z,85.33
2022-10-22T22:21:40.276Z,85.62
2022-10-22T22:24:10.922Z,85.49
2022-10-22T22:26:40.071Z,85.53
2022-10-22T22:29:08.083Z,85.51
2022-10-22T22:31:37.026Z,85.55
2022-10-22T22:34:08.406Z,85.57
2022-10-22T22:36:40.401Z,85.37
2022-10-22T22:39:12.672Z,85.45
2022-10-22T22:41:41.607Z,85.56
2022-10-22T22:44:10.154Z,85.51
2022-10-22T22:46:38.434Z,85.45
2022-10-22T22:49:06.923Z,85.51
2022-10-22T22:51:35.140Z,85.13
2022-10-22T22:54:03.482Z,85.25
2022-10-22T22:56:32.890Z,85.23
2022-10-22T22:59:01.741Z,85.37
2022-10-22T23:01:39.716Z,85.21
2022-10-22T23:04:12.710Z,85.06
2022-10-22T23:06:40.953Z,84.86
2022-10-22T23:09:11.884Z,84.86
2022-10-22T23:11:42.016Z,84.92
2022-10-22T23:14:12.974Z,84.95
2022-10-22T23:16:43.546Z,84.75
2022-10-22T23:19:15.902Z,84.80
2022-10-22T23:21:50.180Z,84.81
2022-10-22T23:24:21.621Z,84.56
2022-10-22T23:26:52.167Z,84.66
2022-10-22T23:29:25.503Z,84.72
2022-10-22T23:31:54.253Z,84.62
2022-10-22T23:34:25.195Z,84.35
2022-10-22T23:36:54.791Z,84.80
2022-10-22T23:39:26.199Z,84.84
2022-10-22T23:41:54.846Z,84.66
2022-10-22T23:44:24.251Z,84.88
2022-10-22T23:46:52.532Z,84.70
2022-10-22T23:49:20.548Z,84.99
2022-10-22T23:51:48.481Z,84.94
2022-10-22T23:54:17.797Z,84.95
2022-10-22T23:56:45.858Z,84.87
